sensor_id;sensor_type;location;lat;lon;timestamp;P1;durP1;ratioP1;P2;durP2;ratioP2
7074;SDS011;3578;51.568;6.932;2023-09-19T00:00:16;15.30;;;3.63;;
7074;SDS011;3578;51.568;6.932;2023-09-19T00:02:45;7.93;;;3.20;;
7074;SDS011;3578;51.568;6.932;2023-09-19T00:05:17;14.03;;;4.37;;
7074;SDS011;3578;51.568;6.932;2023-09-19T00:07:48;12.17;;;3.40;;
7074;SDS011;3578;51.568;6.932;2023-09-19T00:10:18;11.57;;;3.33;;
7074;SDS011;3578;51.568;6.932;2023-09-19T00:12:48;5.33;;;2.70;;
7074;SDS011;3578;51.568;6.932;2023-09-19T00:15:16;7.03;;;2.37;;
7074;SDS011;3578;51.568;6.932;2023-09-19T00:17:43;12.43;;;3.00;;
7074;SDS011;3578;51.568;6.932;2023-09-19T00:20:12;4.97;;;2.50;;
7074;SDS011;3578;51.568;6.932;2023-09-19T00:22:42;5.60;;;2.50;;
7074;SDS011;3578;51.568;6.932;2023-09-19T00:25:10;12.00;;;2.60;;
7074;SDS011;3578;51.568;6.932;2023-09-19T00:27:40;9.33;;;2.70;;
7074;SDS011;3578;51.568;6.932;2023-09-19T00:30:10;12.10;;;2.93;;
7074;SDS011;3578;51.568;6.932;2023-09-19T00:32:41;11.27;;;2.93;;
7074;SDS011;3578;51.568;6.932;2023-09-19T00:35:09;8.03;;;3.20;;
7074;SDS011;3578;51.568;6.932;2023-09-19T00:37:36;16.10;;;3.40;;
7074;SDS011;3578;51.568;6.932;2023-09-19T00:40:05;8.67;;;2.97;;
7074;SDS011;3578;51.568;6.932;2023-09-19T00:42:37;14.43;;;3.57;;
7074;SDS011;3578;51.568;6.932;2023-09-19T00:45:06;10.30;;;3.57;;
7074;SDS011;3578;51.568;6.932;2023-09-19T00:47:37;8.37;;;2.77;;
7074;SDS011;3578;51.568;6.932;2023-09-19T00:50:06;10.20;;;3.20;;
7074;SDS011;3578;51.568;6.932;2023-09-19T00:52:37;13.20;;;3.43;;
7074;SDS011;3578;51.568;6.932;2023-09-19T00:55:05;9.87;;;3.40;;
7074;SDS011;3578;51.568;6.932;2023-09-19T00:57:34;10.90;;;3.80;;
7074;SDS011;3578;51.568;6.932;2023-09-19T01:00:03;7.83;;;3.07;;
7074;SDS011;3578;51.568;6.932;2023-09-19T01:02:37;8.60;;;3.30;;
7074;SDS011;3578;51.568;6.932;2023-09-19T01:05:04;11.13;;;3.77;;
7074;SDS011;3578;51.568;6.932;2023-09-19T01:07:32;10.70;;;3.00;;
7074;SDS011;3578;51.568;6.932;2023-09-19T01:09:59;6.67;;;2.77;;
7074;SDS011;3578;51.568;6.932;2023-09-19T01:12:30;15.37;;;4.37;;
7074;SDS011;3578;51.568;6.932;2023-09-19T01:15:11;9.83;;;3.00;;
7074;SDS011;3578;51.568;6.932;2023-09-19T01:17:52;10.83;;;3.27;;
7074;SDS011;3578;51.568;6.932;2023-09-19T01:20:37;12.70;;;3.03;;
7074;SDS011;3578;51.568;6.932;2023-09-19T01:23:14;12.43;;;3.17;;
7074;SDS011;3578;51.568;6.932;2023-09-19T01:26:06;14.17;;;3.40;;
7074;SDS011;3578;51.568;6.932;2023-09-19T01:28:54;11.40;;;3.40;;
7074;SDS011;3578;51.568;6.932;2023-09-19T01:31:45;13.50;;;3.30;;
7074;SDS011;3578;51.568;6.932;2023-09-19T01:34:15;10.47;;;3.27;;
7074;SDS011;3578;51.568;6.932;2023-09-19T01:36:43;10.67;;;3.60;;
7074;SDS011;3578;51.568;6.932;2023-09-19T01:39:11;9.53;;;3.47;;
7074;SDS011;3578;51.568;6.932;2023-09-19T01:41:50;8.97;;;3.60;;
7074;SDS011;3578;51.568;6.932;2023-09-19T01:44:26;8.30;;;3.20;;
7074;SDS011;3578;51.568;6.932;2023-09-19T01:47:08;12.60;;;4.10;;
7074;SDS011;3578;51.568;6.932;2023-09-19T01:49:48;6.97;;;2.93;;
7074;SDS011;3578;51.568;6.932;2023-09-19T01:52:23;15.60;;;3.97;;
7074;SDS011;3578;51.568;6.932;2023-09-19T01:54:59;16.90;;;4.00;;
7074;SDS011;3578;51.568;6.932;2023-09-19T01:57:34;13.60;;;3.50;;
7074;SDS011;3578;51.568;6.932;2023-09-19T02:00:09;13.93;;;4.03;;
7074;SDS011;3578;51.568;6.932;2023-09-19T02:02:39;10.67;;;3.30;;
7074;SDS011;3578;51.568;6.932;2023-09-19T02:05:11;9.13;;;3.60;;
7074;SDS011;3578;51.568;6.932;2023-09-19T02:07:38;12.47;;;4.03;;
7074;SDS011;3578;51.568;6.932;2023-09-19T02:10:06;13.60;;;3.80;;
7074;SDS011;3578;51.568;6.932;2023-09-19T02:12:35;8.77;;;3.20;;
7074;SDS011;3578;51.568;6.932;2023-09-19T02:15:03;11.10;;;3.53;;
7074;SDS011;3578;51.568;6.932;2023-09-19T02:17:32;15.03;;;3.60;;
7074;SDS011;3578;51.568;6.932;2023-09-19T02:20:00;9.60;;;3.77;;
7074;SDS011;3578;51.568;6.932;2023-09-19T02:22:35;11.93;;;3.20;;
7074;SDS011;3578;51.568;6.932;2023-09-19T02:25:03;18.07;;;4.10;;
7074;SDS011;3578;51.568;6.932;2023-09-19T02:27:32;18.10;;;3.57;;
7074;SDS011;3578;51.568;6.932;2023-09-19T02:29:59;10.90;;;3.00;;
7074;SDS011;3578;51.568;6.932;2023-09-19T02:32:29;12.53;;;3.47;;
7074;SDS011;3578;51.568;6.932;2023-09-19T02:34:56;12.67;;;3.37;;
7074;SDS011;3578;51.568;6.932;2023-09-19T02:37:25;18.03;;;3.90;;
7074;SDS011;3578;51.568;6.932;2023-09-19T02:39:52;12.27;;;3.97;;
7074;SDS011;3578;51.568;6.932;2023-09-19T02:42:19;7.67;;;3.20;;
7074;SDS011;3578;51.568;6.932;2023-09-19T02:44:46;19.30;;;4.47;;
7074;SDS011;3578;51.568;6.932;2023-09-19T02:47:13;16.40;;;3.80;;
7074;SDS011;3578;51.568;6.932;2023-09-19T02:49:41;10.30;;;3.90;;
7074;SDS011;3578;51.568;6.932;2023-09-19T02:52:09;17.07;;;4.27;;
7074;SDS011;3578;51.568;6.932;2023-09-19T02:54:38;7.27;;;3.70;;
7074;SDS011;3578;51.568;6.932;2023-09-19T02:57:05;12.27;;;3.40;;
7074;SDS011;3578;51.568;6.932;2023-09-19T02:59:33;13.20;;;3.87;;
7074;SDS011;3578;51.568;6.932;2023-09-19T03:02:02;15.60;;;4.27;;
7074;SDS011;3578;51.568;6.932;2023-09-19T03:04:30;11.60;;;3.77;;
7074;SDS011;3578;51.568;6.932;2023-09-19T03:06:58;21.60;;;4.00;;
7074;SDS011;3578;51.568;6.932;2023-09-19T03:09:26;12.70;;;3.70;;
7074;SDS011;3578;51.568;6.932;2023-09-19T03:11:54;10.23;;;3.33;;
7074;SDS011;3578;51.568;6.932;2023-09-19T03:14:21;11.43;;;3.60;;
7074;SDS011;3578;51.568;6.932;2023-09-19T03:16:48;16.10;;;3.70;;
7074;SDS011;3578;51.568;6.932;2023-09-19T03:19:17;15.43;;;3.00;;
7074;SDS011;3578;51.568;6.932;2023-09-19T03:21:45;10.20;;;3.20;;
7074;SDS011;3578;51.568;6.932;2023-09-19T03:24:15;12.53;;;3.40;;
7074;SDS011;3578;51.568;6.932;2023-09-19T03:26:42;15.37;;;4.03;;
7074;SDS011;3578;51.568;6.932;2023-09-19T03:29:11;7.13;;;3.10;;
7074;SDS011;3578;51.568;6.932;2023-09-19T03:31:39;10.90;;;3.77;;
7074;SDS011;3578;51.568;6.932;2023-09-19T03:34:06;15.23;;;3.97;;
7074;SDS011;3578;51.568;6.932;2023-09-19T03:36:34;14.73;;;3.77;;
7074;SDS011;3578;51.568;6.932;2023-09-19T03:39:02;12.23;;;3.20;;
7074;SDS011;3578;51.568;6.932;2023-09-19T03:41:30;16.80;;;3.80;;
7074;SDS011;3578;51.568;6.932;2023-09-19T03:43:58;13.13;;;3.70;;
7074;SDS011;3578;51.568;6.932;2023-09-19T03:46:27;6.40;;;2.60;;
7074;SDS011;3578;51.568;6.932;2023-09-19T03:48:55;8.70;;;3.33;;
7074;SDS011;3578;51.568;6.932;2023-09-19T03:51:22;15.50;;;3.63;;
7074;SDS011;3578;51.568;6.932;2023-09-19T03:53:49;13.30;;;3.30;;
7074;SDS011;3578;51.568;6.932;2023-09-19T03:56:16;8.10;;;3.00;;
7074;SDS011;3578;51.568;6.932;2023-09-19T03:58:43;12.67;;;3.40;;
7074;SDS011;3578;51.568;6.932;2023-09-19T04:01:10;7.00;;;3.10;;
7074;SDS011;3578;51.568;6.932;2023-09-19T04:03:39;10.60;;;2.93;;
7074;SDS011;3578;51.568;6.932;2023-09-19T04:06:12;12.97;;;3.50;;
7074;SDS011;3578;51.568;6.932;2023-09-19T04:08:39;7.07;;;3.60;;
7074;SDS011;3578;51.568;6.932;2023-09-19T04:11:07;11.20;;;3.30;;
7074;SDS011;3578;51.568;6.932;2023-09-19T04:13:34;11.80;;;3.33;;
7074;SDS011;3578;51.568;6.932;2023-09-19T04:16:01;11.60;;;3.83;;
7074;SDS011;3578;51.568;6.932;2023-09-19T04:18:28;11.70;;;4.27;;
7074;SDS011;3578;51.568;6.932;2023-09-19T04:20:59;7.17;;;3.13;;
7074;SDS011;3578;51.568;6.932;2023-09-19T04:23:27;15.30;;;3.73;;
7074;SDS011;3578;51.568;6.932;2023-09-19T04:25:54;11.40;;;4.00;;
7074;SDS011;3578;51.568;6.932;2023-09-19T04:28:22;10.53;;;3.53;;
7074;SDS011;3578;51.568;6.932;2023-09-19T04:30:49;10.53;;;3.47;;
7074;SDS011;3578;51.568;6.932;2023-09-19T04:33:16;11.43;;;3.20;;
7074;SDS011;3578;51.568;6.932;2023-09-19T04:35:43;11.43;;;3.60;;
7074;SDS011;3578;51.568;6.932;2023-09-19T04:38:11;10.50;;;3.27;;
7074;SDS011;3578;51.568;6.932;2023-09-19T04:40:40;12.40;;;3.33;;
7074;SDS011;3578;51.568;6.932;2023-09-19T04:43:07;15.03;;;3.27;;
7074;SDS011;3578;51.568;6.932;2023-09-19T04:45:33;14.20;;;3.87;;
7074;SDS011;3578;51.568;6.932;2023-09-19T04:48:00;12.80;;;3.20;;
7074;SDS011;3578;51.568;6.932;2023-09-19T04:50:28;11.30;;;3.27;;
7074;SDS011;3578;51.568;6.932;2023-09-19T04:52:55;13.57;;;3.40;;
7074;SDS011;3578;51.568;6.932;2023-09-19T04:55:24;7.90;;;3.07;;
7074;SDS011;3578;51.568;6.932;2023-09-19T04:57:51;10.97;;;3.53;;
7074;SDS011;3578;51.568;6.932;2023-09-19T05:00:20;9.10;;;2.87;;
7074;SDS011;3578;51.568;6.932;2023-09-19T05:02:49;15.67;;;3.90;;
7074;SDS011;3578;51.568;6.932;2023-09-19T05:05:17;11.07;;;3.20;;
7074;SDS011;3578;51.568;6.932;2023-09-19T05:07:45;5.73;;;2.50;;
7074;SDS011;3578;51.568;6.932;2023-09-19T05:10:12;6.20;;;2.93;;
7074;SDS011;3578;51.568;6.932;2023-09-19T05:12:42;12.83;;;3.50;;
7074;SDS011;3578;51.568;6.932;2023-09-19T05:15:11;17.27;;;3.90;;
7074;SDS011;3578;51.568;6.932;2023-09-19T05:17:40;6.93;;;3.50;;
7074;SDS011;3578;51.568;6.932;2023-09-19T05:20:07;11.67;;;3.47;;
7074;SDS011;3578;51.568;6.932;2023-09-19T05:22:38;7.37;;;2.97;;
7074;SDS011;3578;51.568;6.932;2023-09-19T05:25:06;8.83;;;3.43;;
7074;SDS011;3578;51.568;6.932;2023-09-19T05:27:34;5.10;;;2.70;;
7074;SDS011;3578;51.568;6.932;2023-09-19T05:30:02;12.03;;;3.70;;
7074;SDS011;3578;51.568;6.932;2023-09-19T05:32:31;6.47;;;3.10;;
7074;SDS011;3578;51.568;6.932;2023-09-19T05:34:58;8.50;;;3.00;;
7074;SDS011;3578;51.568;6.932;2023-09-19T05:37:25;10.30;;;3.43;;
7074;SDS011;3578;51.568;6.932;2023-09-19T05:39:52;8.93;;;3.10;;
7074;SDS011;3578;51.568;6.932;2023-09-19T05:42:19;11.60;;;3.40;;
7074;SDS011;3578;51.568;6.932;2023-09-19T05:44:46;12.37;;;3.27;;
7074;SDS011;3578;51.568;6.932;2023-09-19T05:47:15;13.13;;;3.57;;
7074;SDS011;3578;51.568;6.932;2023-09-19T05:49:42;10.03;;;2.97;;
7074;SDS011;3578;51.568;6.932;2023-09-19T05:52:09;13.93;;;4.17;;
7074;SDS011;3578;51.568;6.932;2023-09-19T05:54:36;9.97;;;2.90;;
7074;SDS011;3578;51.568;6.932;2023-09-19T05:57:03;8.50;;;3.20;;
7074;SDS011;3578;51.568;6.932;2023-09-19T05:59:30;14.70;;;4.27;;
7074;SDS011;3578;51.568;6.932;2023-09-19T06:01:58;15.33;;;3.97;;
7074;SDS011;3578;51.568;6.932;2023-09-19T06:04:27;9.93;;;3.60;;
7074;SDS011;3578;51.568;6.932;2023-09-19T06:06:55;8.90;;;3.60;;
7074;SDS011;3578;51.568;6.932;2023-09-19T06:09:23;12.60;;;3.53;;
7074;SDS011;3578;51.568;6.932;2023-09-19T06:11:52;9.57;;;3.50;;
7074;SDS011;3578;51.568;6.932;2023-09-19T06:14:20;13.23;;;3.63;;
7074;SDS011;3578;51.568;6.932;2023-09-19T06:16:49;17.20;;;4.27;;
7074;SDS011;3578;51.568;6.932;2023-09-19T06:19:19;17.50;;;3.80;;
7074;SDS011;3578;51.568;6.932;2023-09-19T06:21:49;10.40;;;4.17;;
7074;SDS011;3578;51.568;6.932;2023-09-19T06:24:16;8.77;;;3.37;;
7074;SDS011;3578;51.568;6.932;2023-09-19T06:26:44;13.77;;;3.27;;
7074;SDS011;3578;51.568;6.932;2023-09-19T06:29:12;11.50;;;3.40;;
7074;SDS011;3578;51.568;6.932;2023-09-19T06:31:39;9.60;;;3.37;;
7074;SDS011;3578;51.568;6.932;2023-09-19T06:34:07;11.53;;;3.27;;
7074;SDS011;3578;51.568;6.932;2023-09-19T06:36:34;10.93;;;3.93;;
7074;SDS011;3578;51.568;6.932;2023-09-19T06:39:02;16.60;;;3.53;;
7074;SDS011;3578;51.568;6.932;2023-09-19T06:41:31;15.80;;;3.60;;
7074;SDS011;3578;51.568;6.932;2023-09-19T06:43:58;21.20;;;4.00;;
7074;SDS011;3578;51.568;6.932;2023-09-19T06:46:26;11.40;;;3.60;;
7074;SDS011;3578;51.568;6.932;2023-09-19T06:48:57;14.37;;;3.60;;
7074;SDS011;3578;51.568;6.932;2023-09-19T06:51:24;10.40;;;3.73;;
7074;SDS011;3578;51.568;6.932;2023-09-19T06:53:51;16.03;;;4.50;;
7074;SDS011;3578;51.568;6.932;2023-09-19T06:56:20;16.83;;;4.10;;
7074;SDS011;3578;51.568;6.932;2023-09-19T06:58:49;13.47;;;4.00;;
7074;SDS011;3578;51.568;6.932;2023-09-19T07:01:16;11.33;;;4.30;;
7074;SDS011;3578;51.568;6.932;2023-09-19T07:03:43;14.87;;;3.87;;
7074;SDS011;3578;51.568;6.932;2023-09-19T07:06:11;11.77;;;3.67;;
7074;SDS011;3578;51.568;6.932;2023-09-19T07:08:38;11.90;;;3.83;;
7074;SDS011;3578;51.568;6.932;2023-09-19T07:11:05;18.20;;;4.00;;
7074;SDS011;3578;51.568;6.932;2023-09-19T07:13:34;13.63;;;3.57;;
7074;SDS011;3578;51.568;6.932;2023-09-19T07:16:01;16.47;;;4.73;;
7074;SDS011;3578;51.568;6.932;2023-09-19T07:18:29;10.17;;;3.57;;
7074;SDS011;3578;51.568;6.932;2023-09-19T07:20:56;15.30;;;3.60;;
7074;SDS011;3578;51.568;6.932;2023-09-19T07:23:30;10.23;;;3.20;;
7074;SDS011;3578;51.568;6.932;2023-09-19T07:25:59;14.40;;;4.30;;
7074;SDS011;3578;51.568;6.932;2023-09-19T07:28:30;13.37;;;3.23;;
7074;SDS011;3578;51.568;6.932;2023-09-19T07:30:59;12.90;;;3.53;;
7074;SDS011;3578;51.568;6.932;2023-09-19T07:33:30;11.60;;;3.43;;
7074;SDS011;3578;51.568;6.932;2023-09-19T07:35:57;12.40;;;3.30;;
7074;SDS011;3578;51.568;6.932;2023-09-19T07:38:24;12.07;;;3.73;;
7074;SDS011;3578;51.568;6.932;2023-09-19T07:40:52;7.30;;;3.40;;
7074;SDS011;3578;51.568;6.932;2023-09-19T07:43:20;16.40;;;3.93;;
7074;SDS011;3578;51.568;6.932;2023-09-19T07:45:47;13.13;;;3.43;;
7074;SDS011;3578;51.568;6.932;2023-09-19T07:48:16;11.27;;;3.40;;
7074;SDS011;3578;51.568;6.932;2023-09-19T07:50:42;10.70;;;3.63;;
7074;SDS011;3578;51.568;6.932;2023-09-19T07:53:10;15.90;;;3.70;;
7074;SDS011;3578;51.568;6.932;2023-09-19T07:55:38;15.93;;;3.30;;
7074;SDS011;3578;51.568;6.932;2023-09-19T07:58:06;11.73;;;3.73;;
7074;SDS011;3578;51.568;6.932;2023-09-19T08:00:33;11.47;;;3.07;;
7074;SDS011;3578;51.568;6.932;2023-09-19T08:03:00;15.70;;;4.50;;
7074;SDS011;3578;51.568;6.932;2023-09-19T08:05:30;13.43;;;3.47;;
7074;SDS011;3578;51.568;6.932;2023-09-19T08:07:58;20.13;;;3.83;;
7074;SDS011;3578;51.568;6.932;2023-09-19T08:10:26;13.67;;;3.70;;
7074;SDS011;3578;51.568;6.932;2023-09-19T08:13:00;11.77;;;3.57;;
7074;SDS011;3578;51.568;6.932;2023-09-19T08:15:27;11.80;;;3.13;;
7074;SDS011;3578;51.568;6.932;2023-09-19T08:17:54;20.57;;;3.63;;
7074;SDS011;3578;51.568;6.932;2023-09-19T08:20:21;15.40;;;4.10;;
7074;SDS011;3578;51.568;6.932;2023-09-19T08:22:49;23.57;;;4.20;;
7074;SDS011;3578;51.568;6.932;2023-09-19T08:25:19;19.53;;;3.40;;
7074;SDS011;3578;51.568;6.932;2023-09-19T08:27:46;14.57;;;3.20;;
7074;SDS011;3578;51.568;6.932;2023-09-19T08:30:14;12.83;;;3.43;;
7074;SDS011;3578;51.568;6.932;2023-09-19T08:32:42;14.00;;;4.47;;
7074;SDS011;3578;51.568;6.932;2023-09-19T08:35:09;9.77;;;3.40;;
7074;SDS011;3578;51.568;6.932;2023-09-19T08:37:36;9.23;;;3.20;;
7074;SDS011;3578;51.568;6.932;2023-09-19T08:40:05;12.23;;;4.07;;
7074;SDS011;3578;51.568;6.932;2023-09-19T08:42:46;8.80;;;3.33;;
7074;SDS011;3578;51.568;6.932;2023-09-19T08:45:15;13.43;;;3.37;;
7074;SDS011;3578;51.568;6.932;2023-09-19T08:47:45;12.40;;;3.70;;
7074;SDS011;3578;51.568;6.932;2023-09-19T08:50:19;10.30;;;3.37;;
7074;SDS011;3578;51.568;6.932;2023-09-19T08:52:53;11.87;;;3.40;;
7074;SDS011;3578;51.568;6.932;2023-09-19T08:55:27;18.83;;;4.10;;
7074;SDS011;3578;51.568;6.932;2023-09-19T08:57:57;6.37;;;3.20;;
7074;SDS011;3578;51.568;6.932;2023-09-19T09:00:28;7.23;;;2.70;;
7074;SDS011;3578;51.568;6.932;2023-09-19T09:02:56;10.73;;;3.27;;
7074;SDS011;3578;51.568;6.932;2023-09-19T09:05:25;11.10;;;3.23;;
7074;SDS011;3578;51.568;6.932;2023-09-19T09:07:53;13.23;;;3.40;;
7074;SDS011;3578;51.568;6.932;2023-09-19T09:10:21;9.57;;;3.10;;
7074;SDS011;3578;51.568;6.932;2023-09-19T09:12:50;14.90;;;3.17;;
7074;SDS011;3578;51.568;6.932;2023-09-19T09:15:19;9.50;;;3.30;;
7074;SDS011;3578;51.568;6.932;2023-09-19T09:17:48;12.87;;;3.77;;
7074;SDS011;3578;51.568;6.932;2023-09-19T09:20:18;13.07;;;3.50;;
7074;SDS011;3578;51.568;6.932;2023-09-19T09:22:51;12.03;;;3.20;;
7074;SDS011;3578;51.568;6.932;2023-09-19T09:25:19;13.97;;;2.60;;
7074;SDS011;3578;51.568;6.932;2023-09-19T09:27:59;7.70;;;3.10;;
7074;SDS011;3578;51.568;6.932;2023-09-19T09:30:33;10.43;;;3.50;;
7074;SDS011;3578;51.568;6.932;2023-09-19T09:33:08;10.63;;;3.57;;
7074;SDS011;3578;51.568;6.932;2023-09-19T09:35:37;12.80;;;4.00;;
7074;SDS011;3578;51.568;6.932;2023-09-19T09:38:13;13.70;;;4.33;;
7074;SDS011;3578;51.568;6.932;2023-09-19T09:40:45;13.43;;;3.50;;
7074;SDS011;3578;51.568;6.932;2023-09-19T09:43:28;8.57;;;2.80;;
7074;SDS011;3578;51.568;6.932;2023-09-19T09:46:06;11.00;;;3.50;;
7074;SDS011;3578;51.568;6.932;2023-09-19T09:48:59;8.07;;;3.00;;
7074;SDS011;3578;51.568;6.932;2023-09-19T09:51:58;11.50;;;2.73;;
7074;SDS011;3578;51.568;6.932;2023-09-19T09:54:32;8.67;;;2.63;;
7074;SDS011;3578;51.568;6.932;2023-09-19T09:57:02;11.50;;;2.87;;
7074;SDS011;3578;51.568;6.932;2023-09-19T09:59:46;10.40;;;2.70;;
7074;SDS011;3578;51.568;6.932;2023-09-19T10:02:19;8.10;;;2.87;;
7074;SDS011;3578;51.568;6.932;2023-09-19T10:04:50;8.63;;;2.93;;
7074;SDS011;3578;51.568;6.932;2023-09-19T10:07:28;10.50;;;2.83;;
7074;SDS011;3578;51.568;6.932;2023-09-19T10:10:01;15.13;;;3.67;;
7074;SDS011;3578;51.568;6.932;2023-09-19T10:12:42;8.80;;;2.60;;
7074;SDS011;3578;51.568;6.932;2023-09-19T10:15:14;7.97;;;3.07;;
7074;SDS011;3578;51.568;6.932;2023-09-19T10:17:45;6.67;;;3.20;;
7074;SDS011;3578;51.568;6.932;2023-09-19T10:20:14;7.40;;;2.77;;
7074;SDS011;3578;51.568;6.932;2023-09-19T10:22:59;16.17;;;3.13;;
7074;SDS011;3578;51.568;6.932;2023-09-19T10:25:27;7.80;;;2.70;;
7074;SDS011;3578;51.568;6.932;2023-09-19T10:27:56;11.00;;;3.17;;
7074;SDS011;3578;51.568;6.932;2023-09-19T10:30:29;5.77;;;2.57;;
7074;SDS011;3578;51.568;6.932;2023-09-19T10:33:00;9.20;;;3.20;;
7074;SDS011;3578;51.568;6.932;2023-09-19T10:35:29;9.40;;;3.53;;
7074;SDS011;3578;51.568;6.932;2023-09-19T10:37:59;13.90;;;4.00;;
7074;SDS011;3578;51.568;6.932;2023-09-19T10:40:28;13.03;;;3.50;;
7074;SDS011;3578;51.568;6.932;2023-09-19T10:43:00;9.43;;;2.73;;
7074;SDS011;3578;51.568;6.932;2023-09-19T10:45:32;7.63;;;3.13;;
7074;SDS011;3578;51.568;6.932;2023-09-19T10:48:01;9.87;;;3.13;;
7074;SDS011;3578;51.568;6.932;2023-09-19T10:50:31;13.47;;;3.40;;
7074;SDS011;3578;51.568;6.932;2023-09-19T10:53:03;9.43;;;3.10;;
7074;SDS011;3578;51.568;6.932;2023-09-19T10:55:33;12.23;;;3.33;;
7074;SDS011;3578;51.568;6.932;2023-09-19T10:58:01;13.10;;;3.17;;
7074;SDS011;3578;51.568;6.932;2023-09-19T11:00:53;8.33;;;3.33;;
7074;SDS011;3578;51.568;6.932;2023-09-19T11:03:22;5.13;;;2.80;;
7074;SDS011;3578;51.568;6.932;2023-09-19T11:06:02;7.70;;;3.33;;
7074;SDS011;3578;51.568;6.932;2023-09-19T11:08:53;10.10;;;2.50;;
7074;SDS011;3578;51.568;6.932;2023-09-19T11:11:42;7.37;;;2.73;;
7074;SDS011;3578;51.568;6.932;2023-09-19T11:20:18;9.70;;;2.70;;
7074;SDS011;3578;51.568;6.932;2023-09-19T11:25:52;9.13;;;2.50;;
7074;SDS011;3578;51.568;6.932;2023-09-19T11:28:29;14.97;;;3.17;;
7074;SDS011;3578;51.568;6.932;2023-09-19T11:40:44;10.00;;;3.10;;
7074;SDS011;3578;51.568;6.932;2023-09-19T11:43:29;5.80;;;2.70;;
7074;SDS011;3578;51.568;6.932;2023-09-19T11:46:08;10.57;;;2.90;;
7074;SDS011;3578;51.568;6.932;2023-09-19T11:48:37;11.60;;;2.80;;
7074;SDS011;3578;51.568;6.932;2023-09-19T11:51:17;7.20;;;2.53;;
7074;SDS011;3578;51.568;6.932;2023-09-19T11:53:47;17.63;;;2.73;;
7074;SDS011;3578;51.568;6.932;2023-09-19T11:56:15;7.40;;;3.20;;
7074;SDS011;3578;51.568;6.932;2023-09-19T11:58:45;7.47;;;2.77;;
7074;SDS011;3578;51.568;6.932;2023-09-19T12:01:14;14.33;;;3.40;;
7074;SDS011;3578;51.568;6.932;2023-09-19T12:03:51;9.73;;;3.00;;
7074;SDS011;3578;51.568;6.932;2023-09-19T12:06:23;10.13;;;2.70;;
7074;SDS011;3578;51.568;6.932;2023-09-19T12:08:52;6.83;;;2.60;;
7074;SDS011;3578;51.568;6.932;2023-09-19T12:11:21;9.33;;;3.10;;
7074;SDS011;3578;51.568;6.932;2023-09-19T12:13:49;5.63;;;2.77;;
7074;SDS011;3578;51.568;6.932;2023-09-19T12:16:19;11.27;;;2.77;;
7074;SDS011;3578;51.568;6.932;2023-09-19T12:18:50;3.80;;;2.20;;
7074;SDS011;3578;51.568;6.932;2023-09-19T12:21:24;8.43;;;2.67;;
7074;SDS011;3578;51.568;6.932;2023-09-19T12:24:06;6.87;;;2.87;;
7074;SDS011;3578;51.568;6.932;2023-09-19T12:26:41;10.37;;;2.73;;
7074;SDS011;3578;51.568;6.932;2023-09-19T12:29:13;16.43;;;2.80;;
7074;SDS011;3578;51.568;6.932;2023-09-19T12:31:51;13.53;;;3.13;;
7074;SDS011;3578;51.568;6.932;2023-09-19T12:34:22;5.20;;;2.77;;
7074;SDS011;3578;51.568;6.932;2023-09-19T12:39:45;5.23;;;2.23;;
7074;SDS011;3578;51.568;6.932;2023-09-19T12:42:16;8.17;;;2.20;;
7074;SDS011;3578;51.568;6.932;2023-09-19T12:44:46;8.53;;;2.63;;
7074;SDS011;3578;51.568;6.932;2023-09-19T12:47:16;5.70;;;2.67;;
7074;SDS011;3578;51.568;6.932;2023-09-19T12:50:04;7.20;;;2.53;;
7074;SDS011;3578;51.568;6.932;2023-09-19T12:52:39;7.50;;;2.50;;
7074;SDS011;3578;51.568;6.932;2023-09-19T12:55:19;9.30;;;2.77;;
7074;SDS011;3578;51.568;6.932;2023-09-19T12:57:55;4.90;;;2.10;;
7074;SDS011;3578;51.568;6.932;2023-09-19T13:00:32;7.53;;;2.57;;
7074;SDS011;3578;51.568;6.932;2023-09-19T13:03:13;8.93;;;3.10;;
7074;SDS011;3578;51.568;6.932;2023-09-19T13:05:51;7.07;;;2.30;;
7074;SDS011;3578;51.568;6.932;2023-09-19T13:08:23;11.73;;;2.93;;
7074;SDS011;3578;51.568;6.932;2023-09-19T13:11:04;11.27;;;3.23;;
7074;SDS011;3578;51.568;6.932;2023-09-19T13:13:38;6.30;;;2.73;;
7074;SDS011;3578;51.568;6.932;2023-09-19T13:16:07;10.60;;;2.40;;
7074;SDS011;3578;51.568;6.932;2023-09-19T13:18:44;6.00;;;2.90;;
7074;SDS011;3578;51.568;6.932;2023-09-19T13:21:15;5.47;;;2.13;;
7074;SDS011;3578;51.568;6.932;2023-09-19T13:23:51;8.53;;;3.40;;
7074;SDS011;3578;51.568;6.932;2023-09-19T13:26:23;7.57;;;2.20;;
7074;SDS011;3578;51.568;6.932;2023-09-19T13:28:51;8.70;;;2.30;;
7074;SDS011;3578;51.568;6.932;2023-09-19T13:31:18;8.23;;;2.83;;
7074;SDS011;3578;51.568;6.932;2023-09-19T13:33:45;7.70;;;2.30;;
7074;SDS011;3578;51.568;6.932;2023-09-19T13:36:15;8.87;;;2.20;;
7074;SDS011;3578;51.568;6.932;2023-09-19T13:38:43;8.50;;;2.17;;
7074;SDS011;3578;51.568;6.932;2023-09-19T13:41:15;3.63;;;1.73;;
7074;SDS011;3578;51.568;6.932;2023-09-19T13:43:42;10.77;;;2.10;;
7074;SDS011;3578;51.568;6.932;2023-09-19T13:46:09;3.40;;;2.17;;
7074;SDS011;3578;51.568;6.932;2023-09-19T13:48:40;5.97;;;2.10;;
7074;SDS011;3578;51.568;6.932;2023-09-19T13:51:07;4.50;;;1.83;;
7074;SDS011;3578;51.568;6.932;2023-09-19T13:53:35;7.33;;;1.87;;
7074;SDS011;3578;51.568;6.932;2023-09-19T13:56:02;6.03;;;1.80;;
7074;SDS011;3578;51.568;6.932;2023-09-19T13:58:31;6.27;;;1.90;;
7074;SDS011;3578;51.568;6.932;2023-09-19T14:00:58;2.83;;;1.57;;
7074;SDS011;3578;51.568;6.932;2023-09-19T14:03:25;9.50;;;2.27;;
7074;SDS011;3578;51.568;6.932;2023-09-19T14:05:53;5.03;;;1.73;;
7074;SDS011;3578;51.568;6.932;2023-09-19T14:08:20;4.00;;;2.00;;
7074;SDS011;3578;51.568;6.932;2023-09-19T14:10:48;6.30;;;1.80;;
7074;SDS011;3578;51.568;6.932;2023-09-19T14:13:15;6.07;;;1.97;;
7074;SDS011;3578;51.568;6.932;2023-09-19T14:15:43;2.70;;;1.70;;
7074;SDS011;3578;51.568;6.932;2023-09-19T14:18:10;3.17;;;1.70;;
7074;SDS011;3578;51.568;6.932;2023-09-19T14:20:37;6.47;;;1.93;;
7074;SDS011;3578;51.568;6.932;2023-09-19T14:23:06;4.20;;;2.30;;
7074;SDS011;3578;51.568;6.932;2023-09-19T14:25:34;8.93;;;2.33;;
7074;SDS011;3578;51.568;6.932;2023-09-19T14:28:03;6.70;;;2.00;;
7074;SDS011;3578;51.568;6.932;2023-09-19T14:30:33;4.77;;;2.10;;
7074;SDS011;3578;51.568;6.932;2023-09-19T14:33:01;4.27;;;1.33;;
7074;SDS011;3578;51.568;6.932;2023-09-19T14:35:28;5.57;;;1.77;;
7074;SDS011;3578;51.568;6.932;2023-09-19T14:37:55;3.13;;;1.40;;
7074;SDS011;3578;51.568;6.932;2023-09-19T14:40:22;3.87;;;1.73;;
7074;SDS011;3578;51.568;6.932;2023-09-19T14:42:50;5.27;;;1.37;;
7074;SDS011;3578;51.568;6.932;2023-09-19T14:45:18;2.10;;;1.03;;
7074;SDS011;3578;51.568;6.932;2023-09-19T14:47:45;4.90;;;1.63;;
7074;SDS011;3578;51.568;6.932;2023-09-19T14:50:14;2.30;;;1.60;;
7074;SDS011;3578;51.568;6.932;2023-09-19T14:52:41;4.40;;;1.37;;
7074;SDS011;3578;51.568;6.932;2023-09-19T14:55:09;4.93;;;1.00;;
7074;SDS011;3578;51.568;6.932;2023-09-19T14:57:40;3.93;;;1.60;;
7074;SDS011;3578;51.568;6.932;2023-09-19T15:00:10;2.30;;;1.60;;
7074;SDS011;3578;51.568;6.932;2023-09-19T15:02:38;3.33;;;2.00;;
7074;SDS011;3578;51.568;6.932;2023-09-19T15:05:06;2.37;;;1.60;;
7074;SDS011;3578;51.568;6.932;2023-09-19T15:07:36;4.20;;;1.20;;
7074;SDS011;3578;51.568;6.932;2023-09-19T15:10:03;3.17;;;1.43;;
7074;SDS011;3578;51.568;6.932;2023-09-19T15:12:34;3.40;;;1.87;;
7074;SDS011;3578;51.568;6.932;2023-09-19T15:15:03;4.60;;;1.40;;
7074;SDS011;3578;51.568;6.932;2023-09-19T15:17:33;2.90;;;1.73;;
7074;SDS011;3578;51.568;6.932;2023-09-19T15:20:00;2.83;;;1.50;;
7074;SDS011;3578;51.568;6.932;2023-09-19T15:22:31;3.43;;;1.27;;
7074;SDS011;3578;51.568;6.932;2023-09-19T15:24:59;4.30;;;1.40;;
7074;SDS011;3578;51.568;6.932;2023-09-19T15:27:26;3.20;;;1.10;;
7074;SDS011;3578;51.568;6.932;2023-09-19T15:29:55;3.20;;;1.00;;
7074;SDS011;3578;51.568;6.932;2023-09-19T15:32:23;3.80;;;1.47;;
7074;SDS011;3578;51.568;6.932;2023-09-19T15:34:50;2.47;;;1.23;;
7074;SDS011;3578;51.568;6.932;2023-09-19T15:37:17;1.23;;;1.10;;
7074;SDS011;3578;51.568;6.932;2023-09-19T15:39:45;1.20;;;1.10;;
7074;SDS011;3578;51.568;6.932;2023-09-19T15:42:13;4.20;;;1.40;;
7074;SDS011;3578;51.568;6.932;2023-09-19T15:44:41;5.50;;;1.63;;
7074;SDS011;3578;51.568;6.932;2023-09-19T15:47:09;5.70;;;1.80;;